createdAt,value
2019-03-30T00:00:10.514Z,0.00
2019-03-30T00:01:10.302Z,0.00
2019-03-30T00:02:10.503Z,0.00
2019-03-30T00:03:10.283Z,0.00
2019-03-30T00:04:10.273Z,0.00
2019-03-30T00:05:10.265Z,0.00
2019-03-30T00:06:10.284Z,0.00
2019-03-30T00:07:10.462Z,0.00
2019-03-30T00:08:10.250Z,0.00
2019-03-30T00:09:10.245Z,0.00
2019-03-30T00:10:10.446Z,0.00
2019-03-30T00:11:10.238Z,0.00
2019-03-30T00:12:10.232Z,0.00
2019-03-30T00:13:10.222Z,0.00
2019-03-30T00:14:10.433Z,0.00
2019-03-30T00:15:10.205Z,0.00
2019-03-30T00:16:10.212Z,0.00
2019-03-30T00:17:10.397Z,0.00
2019-03-30T00:18:10.189Z,0.00
2019-03-30T00:19:10.177Z,0.00
2019-03-30T00:20:10.378Z,0.00
2019-03-30T00:21:10.163Z,0.00
2019-03-30T00:22:10.415Z,0.00
2019-03-30T00:23:10.170Z,0.00
2019-03-30T00:24:10.354Z,0.00
2019-03-30T00:25:10.143Z,0.00
2019-03-30T00:26:10.141Z,0.00
2019-03-30T00:27:10.135Z,0.00
2019-03-30T00:28:10.356Z,0.00
2019-03-30T00:29:10.110Z,0.00
2019-03-30T00:30:10.107Z,0.00
2019-03-30T00:31:10.104Z,0.00
2019-03-30T00:32:10.103Z,0.00
2019-03-30T00:33:10.103Z,0.00
2019-03-30T00:34:10.084Z,0.00
2019-03-30T00:35:10.083Z,0.00
2019-03-30T00:36:10.072Z,0.00
2019-03-30T00:37:10.269Z,0.00
2019-03-30T00:38:10.083Z,0.00
2019-03-30T00:39:10.086Z,0.00
2019-03-30T00:40:10.051Z,0.00
2019-03-30T00:41:10.055Z,0.00
2019-03-30T00:42:10.044Z,0.00
2019-03-30T00:43:10.032Z,0.00
2019-03-30T00:44:10.227Z,0.00
2019-03-30T00:45:10.030Z,0.00
2019-03-30T00:46:10.004Z,0.00
2019-03-30T00:47:10.014Z,0.00
2019-03-30T00:48:10.210Z,0.00
2019-03-30T00:49:09.998Z,0.00
2019-03-30T00:50:10.198Z,0.00
2019-03-30T00:51:09.980Z,0.00
2019-03-30T00:52:09.975Z,0.00
2019-03-30T00:53:09.979Z,0.00
2019-03-30T00:54:09.955Z,0.00
2019-03-30T00:55:09.974Z,0.00
2019-03-30T00:56:09.972Z,0.00
2019-03-30T00:57:09.936Z,0.00
2019-03-30T00:58:09.926Z,0.00
2019-03-30T00:59:09.932Z,0.00
2019-03-30T01:00:09.914Z,0.00
2019-03-30T01:01:09.909Z,0.00
2019-03-30T01:02:09.928Z,0.00
2019-03-30T01:03:09.897Z,0.00
2019-03-30T01:04:09.904Z,0.00
2019-03-30T01:05:09.896Z,0.00
2019-03-30T01:06:09.880Z,0.00
2019-03-30T01:07:09.876Z,0.00
2019-03-30T01:08:09.868Z,0.00
2019-03-30T01:09:09.863Z,0.00
2019-03-30T01:10:09.852Z,0.00
2019-03-30T01:11:09.847Z,0.00
2019-03-30T01:12:09.868Z,0.00
2019-03-30T01:13:09.830Z,0.00
2019-03-30T01:14:09.842Z,0.00
2019-03-30T01:15:09.840Z,0.00
2019-03-30T01:16:09.835Z,0.00
2019-03-30T01:17:09.809Z,0.00
2019-03-30T01:18:09.823Z,0.00
2019-03-30T01:19:09.798Z,0.00
2019-03-30T01:20:09.783Z,0.00
2019-03-30T01:21:09.784Z,0.00
2019-03-30T01:22:09.806Z,0.00
2019-03-30T01:23:09.782Z,0.00
2019-03-30T01:24:09.788Z,0.00
2019-03-30T01:25:09.787Z,0.00
2019-03-30T01:26:09.757Z,0.00
2019-03-30T01:27:09.756Z,0.00
2019-03-30T01:28:09.731Z,0.00
2019-03-30T01:29:09.725Z,0.00
2019-03-30T01:30:22.424Z,0.00
2019-03-30T01:31:09.720Z,0.00
2019-03-30T01:32:09.711Z,0.00
2019-03-30T01:33:09.700Z,0.00
2019-03-30T01:34:09.700Z,0.00
2019-03-30T01:35:09.712Z,0.00
2019-03-30T01:36:09.896Z,0.00
2019-03-30T01:37:09.689Z,0.00
2019-03-30T01:38:09.883Z,0.00
2019-03-30T01:39:09.668Z,0.00
2019-03-30T01:40:09.855Z,0.00
2019-03-30T01:41:09.648Z,0.00
2019-03-30T01:42:09.644Z,0.00
2019-03-30T01:43:09.657Z,0.00
2019-03-30T01:44:09.628Z,0.00
2019-03-30T01:45:09.647Z,0.00
2019-03-30T01:46:09.619Z,0.00
2019-03-30T01:47:09.817Z,0.00
2019-03-30T01:48:09.597Z,0.00
2019-03-30T01:49:09.615Z,0.00
2019-03-30T01:50:17.316Z,0.00
2019-03-30T01:51:09.573Z,0.00
2019-03-30T01:52:09.574Z,0.00
2019-03-30T01:53:09.564Z,0.00
2019-03-30T01:54:09.564Z,0.00
2019-03-30T01:55:09.773Z,0.00
2019-03-30T01:56:09.560Z,0.00
2019-03-30T01:57:09.550Z,0.00
2019-03-30T01:58:09.530Z,0.00
2019-03-30T01:59:09.525Z,0.00
2019-03-30T02:00:09.549Z,0.00
2019-03-30T02:01:09.512Z,0.00
2019-03-30T02:02:09.730Z,0.00
2019-03-30T02:03:09.500Z,0.00
2019-03-30T02:04:09.493Z,0.00
2019-03-30T02:05:09.483Z,0.00
2019-03-30T02:06:09.480Z,0.00
2019-03-30T02:07:09.480Z,0.00
2019-03-30T02:08:09.493Z,0.00
2019-03-30T02:09:09.471Z,0.00
2019-03-30T02:10:09.657Z,0.00
2019-03-30T02:11:09.445Z,0.00
2019-03-30T02:12:09.660Z,0.00
2019-03-30T02:13:09.453Z,0.00
2019-03-30T02:14:09.444Z,0.00
2019-03-30T02:15:09.419Z,0.00
2019-03-30T02:16:09.414Z,0.00
2019-03-30T02:17:09.406Z,0.00
2019-03-30T02:18:09.399Z,0.00
2019-03-30T02:19:09.398Z,0.00
2019-03-30T02:20:09.388Z,0.00
2019-03-30T02:21:09.372Z,0.00
2019-03-30T02:22:09.384Z,0.00
2019-03-30T02:23:09.363Z,0.00
2019-03-30T02:24:09.354Z,0.00
2019-03-30T02:25:09.362Z,0.00
2019-03-30T02:26:09.369Z,0.00
2019-03-30T02:27:09.330Z,0.00
2019-03-30T02:28:09.330Z,0.00
2019-03-30T02:29:09.339Z,0.00
2019-03-30T02:30:09.322Z,0.00
2019-03-30T02:31:09.334Z,0.00
2019-03-30T02:32:09.313Z,0.00
2019-03-30T02:33:09.306Z,0.00
2019-03-30T02:34:09.302Z,0.00
2019-03-30T02:35:09.284Z,0.00
2019-03-30T02:36:09.291Z,0.00
2019-03-30T02:37:09.278Z,0.00
2019-03-30T02:38:09.261Z,0.00
2019-03-30T02:39:09.269Z,0.00
2019-03-30T02:40:09.245Z,0.00
2019-03-30T02:41:09.243Z,0.00
2019-03-30T02:42:09.475Z,0.00
2019-03-30T02:43:09.239Z,0.00
2019-03-30T02:44:09.228Z,0.00
2019-03-30T02:45:09.213Z,0.00
2019-03-30T02:46:09.209Z,0.00
2019-03-30T02:47:09.425Z,0.00
2019-03-30T02:48:09.395Z,0.00
2019-03-30T02:49:09.409Z,0.00
2019-03-30T02:50:09.194Z,0.00
2019-03-30T02:51:09.166Z,0.00
2019-03-30T02:52:09.169Z,0.00
2019-03-30T02:53:09.169Z,0.00
2019-03-30T02:54:09.167Z,0.00
2019-03-30T02:55:12.588Z,0.00
2019-03-30T02:56:09.130Z,0.00
2019-03-30T02:57:09.128Z,0.00
2019-03-30T02:58:09.138Z,0.00
2019-03-30T02:59:09.133Z,0.00
2019-03-30T03:00:09.315Z,0.00
2019-03-30T03:01:09.103Z,0.00
2019-03-30T03:02:09.090Z,0.00
2019-03-30T03:03:09.083Z,0.00
2019-03-30T03:04:09.085Z,0.00
2019-03-30T03:05:09.083Z,0.00
2019-03-30T03:06:09.268Z,0.00
2019-03-30T03:07:09.074Z,0.00
2019-03-30T03:08:09.268Z,0.00
2019-03-30T03:09:09.062Z,0.00
2019-03-30T03:10:09.052Z,0.00
2019-03-30T03:11:09.136Z,0.00
2019-03-30T03:12:09.033Z,0.00
2019-03-30T03:13:09.022Z,0.00
2019-03-30T03:14:09.009Z,0.00
2019-03-30T03:15:09.002Z,0.00
2019-03-30T03:16:09.006Z,0.00
2019-03-30T03:17:08.995Z,0.00
2019-03-30T03:18:08.995Z,0.00
2019-03-30T03:19:08.997Z,0.00
2019-03-30T03:20:08.977Z,0.00
2019-03-30T03:21:09.098Z,0.00
2019-03-30T03:22:08.947Z,0.00
2019-03-30T03:23:08.946Z,0.00
2019-03-30T03:24:08.934Z,0.00
2019-03-30T03:25:08.934Z,0.00
2019-03-30T03:26:09.136Z,0.00
2019-03-30T03:27:08.920Z,0.00
2019-03-30T03:28:08.931Z,0.00
2019-03-30T03:29:08.901Z,0.00
2019-03-30T03:30:09.101Z,0.00
2019-03-30T03:31:08.887Z,0.00
2019-03-30T03:32:08.878Z,0.00
2019-03-30T03:33:09.080Z,0.00
2019-03-30T03:34:08.880Z,0.00
2019-03-30T03:35:08.862Z,0.00
2019-03-30T03:36:08.898Z,0.00
2019-03-30T03:37:09.066Z,0.00
2019-03-30T03:38:08.841Z,0.00
2019-03-30T03:39:08.847Z,0.00
2019-03-30T03:40:08.867Z,0.00
2019-03-30T03:41:08.817Z,0.00
2019-03-30T03:42:08.815Z,0.00
2019-03-30T03:43:08.819Z,0.00
2019-03-30T03:44:08.815Z,0.00
2019-03-30T03:45:08.801Z,0.00
2019-03-30T03:46:08.788Z,0.00
2019-03-30T03:47:08.778Z,0.00
2019-03-30T03:48:08.783Z,0.00
2019-03-30T03:49:08.784Z,0.00
2019-03-30T03:50:08.769Z,0.00
2019-03-30T03:51:25.092Z,0.00
2019-03-30T03:52:08.750Z,0.00
2019-03-30T03:53:08.739Z,0.00
2019-03-30T03:54:08.746Z,0.00
2019-03-30T03:55:08.917Z,0.00
2019-03-30T03:56:08.715Z,0.00
2019-03-30T03:57:08.704Z,0.00
2019-03-30T03:58:08.914Z,0.00
2019-03-30T03:59:08.687Z,0.00
2019-03-30T04:00:08.883Z,0.00
2019-03-30T04:01:08.688Z,0.00
2019-03-30T04:02:08.677Z,0.00
2019-03-30T04:03:08.662Z,0.00
2019-03-30T04:04:08.658Z,0.00
2019-03-30T04:05:08.660Z,0.00
2019-03-30T04:06:08.864Z,0.00
2019-03-30T04:07:08.640Z,0.00
2019-03-30T04:08:08.825Z,0.00
2019-03-30T04:09:08.612Z,0.00
2019-03-30T04:10:08.634Z,0.00
2019-03-30T04:11:08.627Z,0.00
2019-03-30T04:12:08.616Z,0.00
2019-03-30T04:13:08.594Z,0.00
2019-03-30T04:14:08.795Z,0.00
2019-03-30T04:15:08.637Z,0.00
2019-03-30T04:16:08.573Z,0.00
2019-03-30T04:17:08.588Z,0.00
2019-03-30T04:18:08.556Z,0.00
2019-03-30T04:19:08.544Z,0.00
2019-03-30T04:20:08.549Z,0.00
2019-03-30T04:21:08.733Z,0.00
2019-03-30T04:22:08.529Z,0.00
2019-03-30T04:23:08.733Z,0.00
2019-03-30T04:24:08.507Z,0.00
2019-03-30T04:25:08.510Z,0.00
2019-03-30T04:26:08.707Z,0.00
2019-03-30T04:27:08.525Z,0.00
2019-03-30T04:28:08.488Z,0.00
2019-03-30T04:29:08.476Z,0.00
2019-03-30T04:30:08.461Z,0.00
2019-03-30T04:31:08.465Z,0.00
2019-03-30T04:32:08.455Z,0.00
2019-03-30T04:33:08.656Z,0.00
2019-03-30T04:34:08.443Z,0.00
2019-03-30T04:35:08.432Z,0.00
2019-03-30T04:36:08.625Z,0.00
2019-03-30T04:37:08.447Z,0.00
2019-03-30T04:38:08.407Z,0.00
2019-03-30T04:39:08.417Z,0.00
2019-03-30T04:40:08.408Z,0.00
2019-03-30T04:41:08.393Z,0.00
2019-03-30T04:42:08.376Z,0.00
2019-03-30T04:43:08.577Z,0.00
2019-03-30T04:44:08.367Z,0.00
2019-03-30T04:45:08.365Z,0.00
2019-03-30T04:46:08.554Z,0.00
2019-03-30T04:47:08.341Z,0.00
2019-03-30T04:48:08.332Z,0.00
2019-03-30T04:49:08.365Z,0.00
2019-03-30T04:50:08.334Z,0.00
2019-03-30T04:51:08.536Z,0.00
2019-03-30T04:52:08.521Z,4.00
2019-03-30T04:53:08.293Z,4.00
2019-03-30T04:54:08.304Z,0.00
2019-03-30T04:55:08.294Z,4.00
2019-03-30T04:56:08.270Z,4.00
2019-03-30T04:57:08.268Z,4.00
2019-03-30T04:58:09.370Z,4.00
2019-03-30T04:59:08.267Z,4.00
2019-03-30T05:00:08.272Z,8.00
2019-03-30T05:01:08.241Z,8.00
2019-03-30T05:02:08.233Z,12.00
2019-03-30T05:03:08.246Z,12.00
2019-03-30T05:04:08.250Z,12.00
2019-03-30T05:05:08.208Z,12.00
2019-03-30T05:06:08.201Z,16.00
2019-03-30T05:07:08.227Z,16.00
2019-03-30T05:08:08.197Z,16.00
2019-03-30T05:09:08.399Z,20.00
2019-03-30T05:10:08.182Z,24.00
2019-03-30T05:11:08.170Z,28.00
2019-03-30T05:12:08.169Z,32.00
2019-03-30T05:13:08.146Z,36.00
2019-03-30T05:14:08.153Z,36.00
2019-03-30T05:15:08.345Z,40.00
2019-03-30T05:16:08.143Z,48.00
2019-03-30T05:17:08.126Z,52.00
2019-03-30T05:18:08.112Z,56.00
2019-03-30T05:19:08.130Z,64.00
2019-03-30T05:20:08.096Z,64.00
2019-03-30T05:21:08.294Z,72.00
2019-03-30T05:22:12.787Z,80.00
2019-03-30T05:23:08.102Z,84.00
2019-03-30T05:24:08.279Z,92.00
2019-03-30T05:25:08.262Z,100.00
2019-03-30T05:26:08.262Z,104.00
2019-03-30T05:27:08.050Z,116.00
2019-03-30T05:28:08.249Z,120.00
2019-03-30T05:29:08.031Z,132.00
2019-03-30T05:30:08.024Z,140.00
2019-03-30T05:31:08.017Z,148.00
2019-03-30T05:32:08.004Z,156.00
2019-03-30T05:33:07.996Z,172.00
2019-03-30T05:34:07.990Z,180.00
2019-03-30T05:35:08.204Z,192.00
2019-03-30T05:36:08.179Z,200.00
2019-03-30T05:37:07.962Z,208.00
2019-03-30T05:38:07.964Z,216.00
2019-03-30T05:39:08.160Z,224.00
2019-03-30T05:40:07.944Z,232.00
2019-03-30T05:41:08.138Z,240.00
2019-03-30T05:42:07.938Z,248.00
2019-03-30T05:43:07.925Z,256.00
2019-03-30T05:44:07.914Z,272.00
2019-03-30T05:45:07.939Z,288.00
2019-03-30T05:46:07.905Z,304.00
2019-03-30T05:47:07.902Z,320.00
2019-03-30T05:48:07.900Z,340.00
2019-03-30T05:49:08.096Z,352.00
2019-03-30T05:50:07.899Z,368.00
2019-03-30T05:51:07.873Z,388.00
2019-03-30T05:52:07.872Z,400.00
2019-03-30T05:53:07.880Z,412.00
2019-03-30T05:54:07.874Z,424.00
2019-03-30T05:55:07.845Z,424.00
2019-03-30T05:56:08.045Z,432.00
2019-03-30T05:57:07.816Z,444.00
2019-03-30T05:58:07.821Z,460.00
2019-03-30T05:59:07.799Z,468.00
2019-03-30T06:00:07.813Z,472.00
2019-03-30T06:01:07.787Z,476.00
2019-03-30T06:02:07.818Z,480.00
2019-03-30T06:03:07.779Z,484.00
2019-03-30T06:04:07.768Z,488.00
2019-03-30T06:05:07.774Z,492.00
2019-03-30T06:06:07.801Z,492.00
2019-03-30T06:07:07.770Z,504.00
2019-03-30T06:08:07.733Z,512.00
2019-03-30T06:09:07.736Z,528.00
2019-03-30T06:10:07.725Z,540.00
2019-03-30T06:11:07.722Z,556.00
2019-03-30T06:12:07.725Z,576.00
2019-03-30T06:13:07.709Z,592.00
2019-03-30T06:14:07.699Z,604.00
2019-03-30T06:15:07.704Z,620.00
2019-03-30T06:16:07.693Z,632.00
2019-03-30T06:17:07.672Z,652.00
2019-03-30T06:18:07.672Z,664.00
2019-03-30T06:19:07.729Z,680.00
2019-03-30T06:20:07.649Z,692.00
2019-03-30T06:21:07.636Z,704.00
2019-03-30T06:22:07.636Z,716.00
2019-03-30T06:23:07.637Z,732.00
2019-03-30T06:24:07.618Z,736.00
2019-03-30T06:25:07.614Z,752.00
2019-03-30T06:26:07.619Z,764.00
2019-03-30T06:27:07.601Z,780.00
2019-03-30T06:28:07.596Z,800.00
2019-03-30T06:29:07.599Z,820.00
2019-03-30T06:30:07.580Z,828.00
2019-03-30T06:31:07.566Z,836.00
2019-03-30T06:32:07.789Z,840.00
2019-03-30T06:33:07.574Z,848.00
2019-03-30T06:34:07.545Z,860.00
2019-03-30T06:35:07.747Z,868.00
2019-03-30T06:36:07.546Z,876.00
2019-03-30T06:37:07.527Z,892.00
2019-03-30T06:38:07.540Z,904.00
2019-03-30T06:39:07.531Z,924.00
2019-03-30T06:40:07.722Z,940.00
2019-03-30T06:41:07.500Z,956.00
2019-03-30T06:42:07.496Z,976.00
2019-03-30T06:43:08.126Z,996.00
2019-03-30T06:44:07.495Z,1012.00
2019-03-30T06:45:07.485Z,1028.00
2019-03-30T06:46:07.468Z,1044.00
2019-03-30T06:47:07.462Z,1060.00
2019-03-30T06:48:07.455Z,1076.00
2019-03-30T06:49:07.449Z,1096.00
2019-03-30T06:50:07.441Z,1116.00
2019-03-30T06:51:07.447Z,1140.00
2019-03-30T06:52:07.428Z,1164.00
2019-03-30T06:53:07.420Z,1184.00
2019-03-30T06:54:07.427Z,1212.00
2019-03-30T06:55:07.416Z,1240.00
2019-03-30T06:56:07.421Z,1280.00
2019-03-30T06:57:07.420Z,1320.00
2019-03-30T06:58:07.393Z,1364.00
2019-03-30T06:59:07.393Z,1396.00
2019-03-30T07:00:07.379Z,1412.00
2019-03-30T07:01:07.376Z,1468.00
2019-03-30T07:02:07.369Z,1680.00
2019-03-30T07:03:07.570Z,2248.00
2019-03-30T07:04:07.435Z,2844.00
2019-03-30T07:05:07.369Z,3224.00
2019-03-30T07:06:07.346Z,3144.00
2019-03-30T07:07:07.332Z,2776.00
2019-03-30T07:08:07.322Z,2424.00
2019-03-30T07:09:07.410Z,2200.00
2019-03-30T07:10:07.379Z,2116.00
2019-03-30T07:11:20.466Z,2160.00
2019-03-30T07:12:07.379Z,2312.00
2019-03-30T07:13:07.362Z,2588.00
2019-03-30T07:14:07.345Z,2584.00
2019-03-30T07:15:07.344Z,2616.00
2019-03-30T07:16:07.376Z,2884.00
2019-03-30T07:17:07.337Z,2840.00
2019-03-30T07:18:07.323Z,3060.00
2019-03-30T07:19:07.393Z,3368.00
2019-03-30T07:20:07.262Z,3080.00
2019-03-30T07:21:07.465Z,2836.00
2019-03-30T07:22:07.256Z,2684.00
2019-03-30T07:23:12.323Z,2608.00
2019-03-30T07:24:07.447Z,2500.00
2019-03-30T07:25:07.245Z,2588.00
2019-03-30T07:26:07.230Z,2588.00
2019-03-30T07:27:07.428Z,2536.00
2019-03-30T07:28:07.252Z,2692.00
2019-03-30T07:29:07.279Z,4148.00
2019-03-30T07:30:07.396Z,10308.00
2019-03-30T07:31:07.214Z,18112.00
2019-03-30T07:32:07.218Z,21888.00
2019-03-30T07:33:07.239Z,22272.00
2019-03-30T07:34:07.208Z,24192.00
2019-03-30T07:35:07.212Z,32064.00
2019-03-30T07:36:07.241Z,30464.00
2019-03-30T07:37:07.249Z,27808.00
2019-03-30T07:38:07.232Z,18816.00
2019-03-30T07:39:07.228Z,8248.00
2019-03-30T07:40:07.186Z,12452.00
2019-03-30T07:41:07.198Z,11560.00
2019-03-30T07:42:07.251Z,5716.00
2019-03-30T07:43:07.232Z,4364.00
2019-03-30T07:44:07.156Z,9180.00
2019-03-30T07:45:07.264Z,24512.00
2019-03-30T07:46:07.149Z,30656.00
2019-03-30T07:47:07.130Z,21728.00
2019-03-30T07:48:07.150Z,7528.00
2019-03-30T07:49:07.142Z,9752.00
2019-03-30T07:50:07.118Z,23840.00
2019-03-30T07:51:07.125Z,24096.00
2019-03-30T07:52:07.127Z,21280.00
2019-03-30T07:53:07.143Z,30976.00
2019-03-30T07:54:07.148Z,27520.00
2019-03-30T07:55:07.118Z,5404.00
2019-03-30T07:56:08.746Z,13608.00
2019-03-30T07:57:16.528Z,24608.00
2019-03-30T07:58:07.139Z,28704.00
2019-03-30T07:59:07.124Z,30240.00
2019-03-30T08:00:07.087Z,23392.00
2019-03-30T08:01:07.096Z,15200.00
2019-03-30T08:02:07.098Z,3588.00
2019-03-30T08:03:07.121Z,12376.00
2019-03-30T08:04:07.120Z,20992.00
2019-03-30T08:05:07.149Z,24640.00
2019-03-30T08:06:07.119Z,30656.00
2019-03-30T08:07:07.075Z,38304.00
2019-03-30T08:08:07.083Z,38688.00
2019-03-30T08:09:07.107Z,38528.00
2019-03-30T08:10:07.067Z,36608.00
2019-03-30T08:11:07.084Z,17952.00
2019-03-30T08:12:07.082Z,21312.00
2019-03-30T08:13:07.114Z,24512.00
2019-03-30T08:14:07.056Z,11924.00
2019-03-30T08:15:07.070Z,8068.00
2019-03-30T08:16:07.039Z,4708.00
2019-03-30T08:17:07.037Z,8876.00
2019-03-30T08:18:07.068Z,16128.00
2019-03-30T08:19:07.054Z,5564.00
2019-03-30T08:20:07.043Z,3996.00
2019-03-30T08:21:07.018Z,9072.00
2019-03-30T08:22:07.073Z,14956.00
2019-03-30T08:23:07.025Z,21696.00
2019-03-30T08:24:07.056Z,15068.00
2019-03-30T08:25:07.029Z,7992.00
2019-03-30T08:26:07.021Z,3588.00
2019-03-30T08:27:07.034Z,3200.00
2019-03-30T08:28:07.059Z,3608.00
2019-03-30T08:29:07.024Z,6212.00
2019-03-30T08:30:07.039Z,4260.00
2019-03-30T08:31:07.000Z,3012.00
2019-03-30T08:32:07.064Z,2320.00
2019-03-30T08:33:07.025Z,2524.00
2019-03-30T08:34:07.009Z,3096.00
2019-03-30T08:35:07.049Z,2060.00
2019-03-30T08:36:06.996Z,2028.00
2019-03-30T08:37:06.986Z,1876.00
2019-03-30T08:38:07.039Z,2256.00
2019-03-30T08:39:07.000Z,2176.00
2019-03-30T08:40:07.030Z,2208.00
2019-03-30T08:41:07.019Z,2272.00
2019-03-30T08:42:07.027Z,1780.00
2019-03-30T08:43:07.009Z,2732.00
2019-03-30T08:44:06.973Z,3096.00
2019-03-30T08:45:06.971Z,3944.00
2019-03-30T08:46:06.985Z,3492.00
2019-03-30T08:47:07.060Z,3768.00
2019-03-30T08:48:06.952Z,3500.00
2019-03-30T08:49:06.948Z,3340.00
2019-03-30T08:50:06.938Z,3220.00
2019-03-30T08:51:06.932Z,2948.00
2019-03-30T08:52:07.149Z,2684.00
2019-03-30T08:53:07.130Z,2468.00
2019-03-30T08:54:07.129Z,2316.00
2019-03-30T08:55:06.927Z,2200.00
2019-03-30T08:56:06.920Z,2100.00
2019-03-30T08:57:07.119Z,2012.00
2019-03-30T08:58:06.916Z,1896.00
2019-03-30T08:59:06.904Z,1788.00
2019-03-30T09:00:06.915Z,1696.00
2019-03-30T09:01:07.100Z,1628.00
2019-03-30T09:02:06.900Z,1596.00
2019-03-30T09:03:07.125Z,1564.00
2019-03-30T09:04:06.893Z,1540.00
2019-03-30T09:05:06.892Z,1536.00
2019-03-30T09:06:06.886Z,1520.00
2019-03-30T09:07:06.892Z,1504.00
2019-03-30T09:08:06.877Z,1500.00
2019-03-30T09:09:06.877Z,1492.00
2019-03-30T09:10:06.865Z,1488.00
2019-03-30T09:11:06.866Z,1480.00
2019-03-30T09:12:06.932Z,1472.00
2019-03-30T09:13:06.876Z,1472.00
2019-03-30T09:14:06.857Z,1468.00
2019-03-30T09:15:06.853Z,1464.00
2019-03-30T09:16:06.865Z,1460.00
2019-03-30T09:17:06.852Z,1440.00
2019-03-30T09:18:06.850Z,1432.00
2019-03-30T09:19:06.837Z,1428.00
2019-03-30T09:20:06.843Z,1416.00
2019-03-30T09:21:06.870Z,1408.00
2019-03-30T09:22:06.852Z,1396.00
2019-03-30T09:23:06.838Z,1384.00
2019-03-30T09:24:09.951Z,1376.00
2019-03-30T09:25:06.841Z,1360.00
2019-03-30T09:26:06.898Z,1348.00
2019-03-30T09:27:06.813Z,1340.00
2019-03-30T09:28:06.826Z,1328.00
2019-03-30T09:29:06.805Z,1320.00
2019-03-30T09:30:07.005Z,1312.00
2019-03-30T09:31:07.009Z,1304.00
2019-03-30T09:32:14.253Z,1296.00
2019-03-30T09:33:07.001Z,1288.00
2019-03-30T09:34:07.001Z,1284.00
2019-03-30T09:35:06.793Z,1280.00
2019-03-30T09:36:06.784Z,1268.00
2019-03-30T09:37:06.782Z,1268.00
2019-03-30T09:38:06.793Z,1264.00
2019-03-30T09:39:06.781Z,1256.00
2019-03-30T09:40:06.791Z,1248.00
2019-03-30T09:41:06.972Z,1236.00
2019-03-30T09:42:06.801Z,1228.00
2019-03-30T09:43:06.768Z,1220.00
2019-03-30T09:44:06.771Z,1212.00
2019-03-30T09:45:06.778Z,1208.00
2019-03-30T09:46:06.966Z,1196.00
2019-03-30T09:47:06.972Z,1184.00
2019-03-30T09:48:06.970Z,1176.00
2019-03-30T09:49:06.747Z,1168.00
2019-03-30T09:50:06.743Z,1160.00
2019-03-30T09:51:06.742Z,1148.00
2019-03-30T09:52:06.735Z,1144.00
2019-03-30T09:53:06.751Z,1136.00
2019-03-30T09:54:06.729Z,1132.00
2019-03-30T09:55:06.745Z,1120.00
2019-03-30T09:56:06.727Z,1116.00
2019-03-30T09:57:06.947Z,1108.00
2019-03-30T09:58:06.922Z,1096.00
2019-03-30T09:59:06.727Z,1092.00
2019-03-30T10:00:06.735Z,1084.00
2019-03-30T10:01:06.928Z,1084.00
2019-03-30T10:02:06.919Z,1092.00
2019-03-30T10:03:06.911Z,1092.00
2019-03-30T10:04:06.700Z,1084.00
2019-03-30T10:05:06.692Z,1084.00
2019-03-30T10:06:06.706Z,1084.00
2019-03-30T10:07:06.699Z,1080.00
2019-03-30T10:08:06.686Z,1072.00
2019-03-30T10:09:06.681Z,1076.00
2019-03-30T10:10:06.689Z,1076.00
2019-03-30T10:11:06.704Z,1072.00
2019-03-30T10:12:06.690Z,1060.00
2019-03-30T10:13:06.683Z,1048.00
2019-03-30T10:14:06.667Z,1040.00
2019-03-30T10:15:06.767Z,1040.00
2019-03-30T10:16:06.685Z,1052.00
2019-03-30T10:17:06.680Z,1044.00
2019-03-30T10:18:06.763Z,1040.00
2019-03-30T10:19:06.772Z,1032.00
2019-03-30T10:20:06.665Z,1024.00
2019-03-30T10:21:06.648Z,1024.00
2019-03-30T10:22:06.716Z,1032.00
2019-03-30T10:23:06.662Z,1024.00
2019-03-30T10:24:06.773Z,1012.00
2019-03-30T10:25:06.635Z,996.00
2019-03-30T10:26:06.637Z,984.00
2019-03-30T10:27:06.847Z,984.00
2019-03-30T10:28:06.666Z,976.00
2019-03-30T10:29:06.644Z,968.00
2019-03-30T10:30:06.631Z,960.00
2019-03-30T10:31:06.875Z,948.00
2019-03-30T10:32:06.616Z,944.00
2019-03-30T10:33:06.617Z,936.00
2019-03-30T10:34:06.635Z,940.00
2019-03-30T10:35:06.636Z,936.00
2019-03-30T10:36:06.609Z,936.00
2019-03-30T10:37:06.610Z,924.00
2019-03-30T10:38:06.604Z,916.00
2019-03-30T10:39:06.622Z,912.00
2019-03-30T10:40:06.610Z,908.00
2019-03-30T10:41:06.600Z,900.00
2019-03-30T10:42:06.591Z,904.00
2019-03-30T10:43:06.607Z,904.00
2019-03-30T10:44:06.582Z,900.00
2019-03-30T10:45:06.593Z,896.00
2019-03-30T10:46:06.586Z,900.00
2019-03-30T10:47:06.574Z,900.00
2019-03-30T10:48:06.571Z,892.00
2019-03-30T10:49:06.574Z,892.00
2019-03-30T10:50:06.583Z,888.00
2019-03-30T10:51:06.593Z,888.00
2019-03-30T10:52:06.558Z,884.00
2019-03-30T10:53:06.559Z,876.00
2019-03-30T10:54:06.566Z,872.00
2019-03-30T10:55:06.570Z,936.00
2019-03-30T10:56:06.558Z,976.00
2019-03-30T10:57:06.563Z,952.00
2019-03-30T10:58:06.746Z,940.00
2019-03-30T10:59:06.541Z,936.00
2019-03-30T11:00:06.551Z,904.00
2019-03-30T11:01:06.564Z,884.00
2019-03-30T11:02:06.539Z,912.00
2019-03-30T11:03:06.557Z,956.00
2019-03-30T11:04:06.541Z,912.00
2019-03-30T11:05:06.530Z,896.00
2019-03-30T11:06:06.542Z,932.00
2019-03-30T11:07:06.528Z,884.00
2019-03-30T11:08:06.516Z,868.00
2019-03-30T11:09:06.517Z,852.00
2019-03-30T11:10:06.631Z,848.00
2019-03-30T11:11:06.513Z,836.00
2019-03-30T11:12:06.542Z,840.00
2019-03-30T11:13:06.502Z,856.00
2019-03-30T11:14:06.589Z,844.00
2019-03-30T11:15:06.702Z,832.00
2019-03-30T11:16:06.504Z,860.00
2019-03-30T11:17:06.490Z,800.00
2019-03-30T11:18:06.496Z,832.00
2019-03-30T11:19:06.494Z,832.00
2019-03-30T11:20:06.501Z,832.00
2019-03-30T11:21:06.498Z,824.00
2019-03-30T11:22:06.501Z,812.00
2019-03-30T11:23:06.481Z,808.00
2019-03-30T11:24:06.984Z,804.00
2019-03-30T11:25:08.471Z,804.00
2019-03-30T11:26:06.493Z,692.00
2019-03-30T11:27:06.482Z,808.00
2019-03-30T11:28:06.471Z,700.00
2019-03-30T11:29:06.664Z,796.00
2019-03-30T11:30:06.456Z,792.00
2019-03-30T11:31:06.686Z,824.00
2019-03-30T11:32:06.462Z,924.00
2019-03-30T11:33:06.451Z,992.00
2019-03-30T11:34:06.450Z,996.00
2019-03-30T11:35:06.452Z,880.00
2019-03-30T11:36:06.440Z,816.00
2019-03-30T11:37:06.446Z,784.00
2019-03-30T11:38:06.654Z,800.00
2019-03-30T11:39:06.436Z,820.00
2019-03-30T11:40:06.434Z,828.00
2019-03-30T11:41:06.431Z,936.00
2019-03-30T11:42:06.439Z,936.00
2019-03-30T11:43:06.431Z,920.00
2019-03-30T11:44:06.490Z,940.00
2019-03-30T11:45:06.427Z,900.00
2019-03-30T11:46:06.648Z,880.00
2019-03-30T11:47:06.630Z,788.00
2019-03-30T11:48:06.426Z,724.00
2019-03-30T11:49:06.426Z,704.00
2019-03-30T11:50:06.428Z,700.00
2019-03-30T11:51:06.412Z,700.00
2019-03-30T11:52:06.413Z,724.00
2019-03-30T11:53:06.628Z,712.00
2019-03-30T11:54:06.432Z,680.00
2019-03-30T11:55:20.523Z,720.00
2019-03-30T11:56:06.423Z,756.00
2019-03-30T11:57:06.615Z,736.00
2019-03-30T11:58:06.396Z,676.00
2019-03-30T11:59:06.388Z,640.00
2019-03-30T12:00:06.391Z,628.00
2019-03-30T12:01:06.418Z,636.00
2019-03-30T12:02:06.391Z,608.00
2019-03-30T12:03:06.394Z,616.00
2019-03-30T12:04:06.394Z,620.00
2019-03-30T12:05:06.400Z,620.00
2019-03-30T12:06:06.591Z,604.00
2019-03-30T12:07:06.390Z,588.00
2019-03-30T12:08:06.578Z,580.00
2019-03-30T12:09:06.368Z,584.00
2019-03-30T12:10:06.378Z,584.00
2019-03-30T12:11:06.367Z,596.00
2019-03-30T12:12:06.358Z,588.00
2019-03-30T12:13:06.384Z,580.00
2019-03-30T12:14:06.376Z,572.00
2019-03-30T12:15:06.371Z,580.00
2019-03-30T12:16:06.367Z,572.00
2019-03-30T12:17:06.557Z,564.00
2019-03-30T12:18:06.362Z,560.00
2019-03-30T12:19:06.348Z,560.00
2019-03-30T12:20:06.438Z,560.00
2019-03-30T12:21:06.351Z,556.00
2019-03-30T12:22:06.563Z,556.00
2019-03-30T12:23:06.351Z,556.00
2019-03-30T12:24:06.483Z,552.00
2019-03-30T12:25:06.355Z,548.00
2019-03-30T12:26:06.339Z,544.00
2019-03-30T12:27:06.340Z,544.00
2019-03-30T12:28:06.348Z,540.00
2019-03-30T12:29:06.406Z,540.00
2019-03-30T12:30:06.323Z,544.00
2019-03-30T12:31:06.342Z,544.00
2019-03-30T12:32:06.321Z,540.00
2019-03-30T12:33:06.315Z,548.00
2019-03-30T12:34:06.318Z,556.00
2019-03-30T12:35:06.321Z,552.00
2019-03-30T12:36:06.307Z,544.00
2019-03-30T12:37:06.306Z,540.00
2019-03-30T12:38:06.305Z,536.00
2019-03-30T12:39:06.503Z,536.00